Calfucura, Argentina
Current Conditions -  °F | °C
As of 8:00 AM on Friday 24 Oct 2014 (Local Time) from SAZM Reporting Station
Clear Clear  
Wind Chill: 15°   Ceiling: Unl
Heat Index: 15°   Visibility: 6mi
Dew Point: 13°   Wind: 8mph
Humidity: 88%   Direction: 90°E
Pressure: 30.09"   Gusts: NA
Location:  37.68°S, 57.52°W
Report Text: SAZM 241100Z 09007KT CAVOK 15/13 Q1019
Loading
Personal Weather Stations






























Interactive Weather Map
Tropical Storm Tracking
New forecast layout! Learn more

10-Day Weather Forecast

Advertisements
Track Severe Weather on mobile